sensor_id;sensor_type;location;lat;lon;timestamp;pressure;altitude;pressure_sealevel;temperature;humidity
69171;BME280;56279;47.902;12.308;2022-09-21T00:02:00;96116.09;;;8.69;88.62
69171;BME280;56279;47.902;12.308;2022-09-21T00:04:02;96111.63;;;8.70;88.87
69171;BME280;56279;47.902;12.308;2022-09-21T00:06:05;96113.75;;;8.73;88.86
69171;BME280;56279;47.902;12.308;2022-09-21T00:08:07;96119.59;;;8.75;88.71
69171;BME280;56279;47.902;12.308;2022-09-21T00:10:10;96119.34;;;8.76;88.96
69171;BME280;56279;47.902;12.308;2022-09-21T00:12:12;96124.34;;;8.78;88.84
69171;BME280;56279;47.902;12.308;2022-09-21T00:14:13;96115.41;;;8.79;88.70
69171;BME280;56279;47.902;12.308;2022-09-21T00:16:15;96116.44;;;8.78;88.62
69171;BME280;56279;47.902;12.308;2022-09-21T00:18:17;96114.34;;;8.80;88.74
69171;BME280;56279;47.902;12.308;2022-09-21T00:20:19;96112.31;;;8.82;88.39
69171;BME280;56279;47.902;12.308;2022-09-21T00:22:21;96116.50;;;8.83;88.60
69171;BME280;56279;47.902;12.308;2022-09-21T00:24:23;96119.16;;;8.83;88.46
69171;BME280;56279;47.902;12.308;2022-09-21T00:26:25;96114.69;;;8.83;88.96
69171;BME280;56279;47.902;12.308;2022-09-21T00:28:27;96117.31;;;8.83;88.42
69171;BME280;56279;47.902;12.308;2022-09-21T00:30:28;96115.47;;;8.84;89.12
69171;BME280;56279;47.902;12.308;2022-09-21T00:32:30;96110.22;;;8.84;88.51
69171;BME280;56279;47.902;12.308;2022-09-21T00:34:31;96118.91;;;8.84;88.75
69171;BME280;56279;47.902;12.308;2022-09-21T00:36:33;96126.00;;;8.84;88.44
69171;BME280;56279;47.902;12.308;2022-09-21T00:38:35;96122.31;;;8.85;88.51
69171;BME280;56279;47.902;12.308;2022-09-21T00:40:36;96124.94;;;8.85;88.74
69171;BME280;56279;47.902;12.308;2022-09-21T00:42:38;96126.81;;;8.84;88.67
69171;BME280;56279;47.902;12.308;2022-09-21T00:44:39;96123.38;;;8.84;88.72
69171;BME280;56279;47.902;12.308;2022-09-21T00:46:41;96124.41;;;8.83;88.51
69171;BME280;56279;47.902;12.308;2022-09-21T00:48:43;96122.03;;;8.81;88.76
69171;BME280;56279;47.902;12.308;2022-09-21T00:50:50;96119.41;;;8.81;88.82
69171;BME280;56279;47.902;12.308;2022-09-21T00:52:55;96120.97;;;8.82;88.94
69171;BME280;56279;47.902;12.308;2022-09-21T00:57:19;96122.25;;;8.80;88.65
69171;BME280;56279;47.902;12.308;2022-09-21T00:59:22;96118.06;;;8.79;88.77
69171;BME280;56279;47.902;12.308;2022-09-21T01:01:23;96115.41;;;8.79;89.05
69171;BME280;56279;47.902;12.308;2022-09-21T01:03:25;96120.69;;;8.79;88.88
69171;BME280;56279;47.902;12.308;2022-09-21T01:05:27;96112.78;;;8.79;89.26
69171;BME280;56279;47.902;12.308;2022-09-21T01:07:31;96110.16;;;8.79;89.00
69171;BME280;56279;47.902;12.308;2022-09-21T01:09:34;96113.59;;;8.79;89.06
69171;BME280;56279;47.902;12.308;2022-09-21T01:13:50;96119.06;;;8.78;89.35
69171;BME280;56279;47.902;12.308;2022-09-21T01:25:29;96121.59;;;8.68;89.11
69171;BME280;56279;47.902;12.308;2022-09-21T01:27:53;96116.28;;;8.63;89.10
69171;BME280;56279;47.902;12.308;2022-09-21T01:29:59;96120.44;;;8.59;89.53
69171;BME280;56279;47.902;12.308;2022-09-21T01:32:13;96115.66;;;8.56;89.49
69171;BME280;56279;47.902;12.308;2022-09-21T01:36:41;96113.50;;;8.53;89.58
69171;BME280;56279;47.902;12.308;2022-09-21T01:38:47;96121.66;;;8.51;89.89
69171;BME280;56279;47.902;12.308;2022-09-21T01:40:52;96118.47;;;8.49;89.87
69171;BME280;56279;47.902;12.308;2022-09-21T01:42:58;96119.75;;;8.47;90.00
69171;BME280;56279;47.902;12.308;2022-09-21T01:45:02;96119.75;;;8.47;90.04
69171;BME280;56279;47.902;12.308;2022-09-21T01:47:09;96117.91;;;8.47;90.04
69171;BME280;56279;47.902;12.308;2022-09-21T01:49:16;96116.31;;;8.46;90.22
69171;BME280;56279;47.902;12.308;2022-09-21T01:51:19;96116.06;;;8.48;90.06
69171;BME280;56279;47.902;12.308;2022-09-21T01:53:35;96112.91;;;8.46;89.83
69171;BME280;56279;47.902;12.308;2022-09-21T01:55:43;96119.75;;;8.47;90.08
69171;BME280;56279;47.902;12.308;2022-09-21T01:59:51;96116.06;;;8.48;90.31
69171;BME280;56279;47.902;12.308;2022-09-21T02:01:57;96115.28;;;8.47;90.08
69171;BME280;56279;47.902;12.308;2022-09-21T02:04:03;96116.06;;;8.48;89.95
69171;BME280;56279;47.902;12.308;2022-09-21T02:06:06;96122.94;;;8.49;90.43
69171;BME280;56279;47.902;12.308;2022-09-21T02:08:09;96121.34;;;8.48;89.81
69171;BME280;56279;47.902;12.308;2022-09-21T02:10:18;96116.59;;;8.45;90.02
69171;BME280;56279;47.902;12.308;2022-09-21T02:12:22;96120.25;;;8.44;90.18
69171;BME280;56279;47.902;12.308;2022-09-21T02:14:24;96117.31;;;8.40;90.18
69171;BME280;56279;47.902;12.308;2022-09-21T02:26:16;96114.44;;;8.25;90.45
69171;BME280;56279;47.902;12.308;2022-09-21T02:28:32;96118.09;;;8.24;90.45
69171;BME280;56279;47.902;12.308;2022-09-21T02:30:40;96109.44;;;8.23;90.68
69171;BME280;56279;47.902;12.308;2022-09-21T02:33:09;96107.28;;;8.20;90.38
69171;BME280;56279;47.902;12.308;2022-09-21T02:35:31;96119.38;;;8.21;90.34
69171;BME280;56279;47.902;12.308;2022-09-21T02:37:46;96108.28;;;8.19;90.48
69171;BME280;56279;47.902;12.308;2022-09-21T02:42:18;96110.63;;;8.16;90.90
69171;BME280;56279;47.902;12.308;2022-09-21T02:44:27;96107.44;;;8.14;90.69
69171;BME280;56279;47.902;12.308;2022-09-21T02:46:37;96112.94;;;8.12;91.37
69171;BME280;56279;47.902;12.308;2022-09-21T02:48:47;96109.28;;;8.13;91.34
69171;BME280;56279;47.902;12.308;2022-09-21T02:50:52;96117.72;;;8.15;91.29
69171;BME280;56279;47.902;12.308;2022-09-21T02:52:55;96107.75;;;8.17;91.16
69171;BME280;56279;47.902;12.308;2022-09-21T02:54:58;96108.28;;;8.19;91.58
69171;BME280;56279;47.902;12.308;2022-09-21T02:57:01;96116.72;;;8.21;91.28
69171;BME280;56279;47.902;12.308;2022-09-21T02:59:04;96109.44;;;8.23;91.66
69171;BME280;56279;47.902;12.308;2022-09-21T03:01:09;96118.09;;;8.24;91.89
69171;BME280;56279;47.902;12.308;2022-09-21T03:03:19;96119.69;;;8.25;91.70
69171;BME280;56279;47.902;12.308;2022-09-21T03:05:20;96119.47;;;8.26;91.71
69171;BME280;56279;47.902;12.308;2022-09-21T03:07:21;96117.38;;;8.28;91.65
69171;BME280;56279;47.902;12.308;2022-09-21T03:09:22;96120.03;;;8.28;91.62
69171;BME280;56279;47.902;12.308;2022-09-21T03:11:24;96123.22;;;8.30;91.19
69171;BME280;56279;47.902;12.308;2022-09-21T03:13:25;96125.59;;;8.32;91.74
69171;BME280;56279;47.902;12.308;2022-09-21T03:15:27;96131.66;;;8.32;91.73
69171;BME280;56279;47.902;12.308;2022-09-21T03:17:28;96129.84;;;8.33;91.60
69171;BME280;56279;47.902;12.308;2022-09-21T03:19:29;96133.78;;;8.35;92.00
69171;BME280;56279;47.902;12.308;2022-09-21T03:21:31;96136.41;;;8.35;91.68
69171;BME280;56279;47.902;12.308;2022-09-21T03:23:32;96137.78;;;8.38;91.42
69171;BME280;56279;47.902;12.308;2022-09-21T03:25:33;96143.84;;;8.39;91.44
69171;BME280;56279;47.902;12.308;2022-09-21T03:27:34;96146.25;;;8.40;91.83
69171;BME280;56279;47.902;12.308;2022-09-21T03:29:36;96144.38;;;8.41;91.83
69171;BME280;56279;47.902;12.308;2022-09-21T03:31:37;96142.31;;;8.43;91.29
69171;BME280;56279;47.902;12.308;2022-09-21T03:33:38;96148.16;;;8.45;91.54
69171;BME280;56279;47.902;12.308;2022-09-21T03:35:40;96148.91;;;8.45;91.51
69171;BME280;56279;47.902;12.308;2022-09-21T03:37:42;96145.50;;;8.45;91.31
69171;BME280;56279;47.902;12.308;2022-09-21T03:39:43;96148.91;;;8.45;91.37
69171;BME280;56279;47.902;12.308;2022-09-21T03:41:47;96148.16;;;8.45;91.25
69171;BME280;56279;47.902;12.308;2022-09-21T03:43:48;96148.91;;;8.45;91.29
69171;BME280;56279;47.902;12.308;2022-09-21T03:45:49;96149.72;;;8.46;91.43
69171;BME280;56279;47.902;12.308;2022-09-21T03:47:54;96152.91;;;8.48;91.54
69171;BME280;56279;47.902;12.308;2022-09-21T03:49:55;96150.81;;;8.50;91.58
69171;BME280;56279;47.902;12.308;2022-09-21T03:51:57;96157.69;;;8.51;91.55
69171;BME280;56279;47.902;12.308;2022-09-21T03:53:59;96155.59;;;8.53;91.61
69171;BME280;56279;47.902;12.308;2022-09-21T03:56:00;96157.22;;;8.54;91.54
69171;BME280;56279;47.902;12.308;2022-09-21T03:58:02;96153.53;;;8.55;91.11
69171;BME280;56279;47.902;12.308;2022-09-21T04:00:09;96152.97;;;8.53;91.09
69171;BME280;56279;47.902;12.308;2022-09-21T04:02:11;96153.53;;;8.55;90.52
69171;BME280;56279;47.902;12.308;2022-09-21T04:04:12;96153.53;;;8.55;91.02
69171;BME280;56279;47.902;12.308;2022-09-21T04:06:13;96156.94;;;8.55;90.89
69171;BME280;56279;47.902;12.308;2022-09-21T04:08:15;96152.50;;;8.56;90.84
69171;BME280;56279;47.902;12.308;2022-09-21T04:10:20;96155.13;;;8.56;90.86
69171;BME280;56279;47.902;12.308;2022-09-21T04:12:27;96152.50;;;8.56;90.90
69171;BME280;56279;47.902;12.308;2022-09-21T04:14:28;96157.22;;;8.54;90.78
69171;BME280;56279;47.902;12.308;2022-09-21T04:16:30;96149.31;;;8.54;90.95
69171;BME280;56279;47.902;12.308;2022-09-21T04:18:31;96157.44;;;8.52;90.81
69171;BME280;56279;47.902;12.308;2022-09-21T04:20:32;96147.16;;;8.51;90.84
69171;BME280;56279;47.902;12.308;2022-09-21T04:22:34;96158.97;;;8.48;91.02
69171;BME280;56279;47.902;12.308;2022-09-21T04:24:37;96156.03;;;8.45;90.97
69171;BME280;56279;47.902;12.308;2022-09-21T04:26:40;96154.91;;;8.41;91.14
69171;BME280;56279;47.902;12.308;2022-09-21T04:28:42;96157.47;;;8.35;91.09
69171;BME280;56279;47.902;12.308;2022-09-21T04:30:43;96156.34;;;8.31;91.19
69171;BME280;56279;47.902;12.308;2022-09-21T04:32:45;96156.28;;;8.26;91.48
69171;BME280;56279;47.902;12.308;2022-09-21T04:34:46;96150.13;;;8.21;91.06
69171;BME280;56279;47.902;12.308;2022-09-21T04:36:47;96153.72;;;8.15;91.51
69171;BME280;56279;47.902;12.308;2022-09-21T04:38:49;96152.06;;;8.09;91.58
69171;BME280;56279;47.902;12.308;2022-09-21T04:40:56;96152.69;;;7.99;91.42
69171;BME280;56279;47.902;12.308;2022-09-21T04:42:57;96148.63;;;7.92;91.46
69171;BME280;56279;47.902;12.308;2022-09-21T04:44:59;96147.19;;;7.84;92.09
69171;BME280;56279;47.902;12.308;2022-09-21T04:47:00;96163.13;;;7.78;91.86
69171;BME280;56279;47.902;12.308;2022-09-21T04:49:01;96157.22;;;7.71;92.12
69171;BME280;56279;47.902;12.308;2022-09-21T04:51:03;96160.81;;;7.64;92.19
69171;BME280;56279;47.902;12.308;2022-09-21T04:53:04;96164.16;;;7.60;92.36
69171;BME280;56279;47.902;12.308;2022-09-21T04:55:06;96162.44;;;7.54;92.52
69171;BME280;56279;47.902;12.308;2022-09-21T04:57:07;96168.41;;;7.49;93.07
69171;BME280;56279;47.902;12.308;2022-09-21T04:59:09;96165.72;;;7.44;92.43
69171;BME280;56279;47.902;12.308;2022-09-21T05:01:10;96161.41;;;7.38;92.91
69171;BME280;56279;47.902;12.308;2022-09-21T05:03:12;96163.72;;;7.35;92.91
69171;BME280;56279;47.902;12.308;2022-09-21T05:05:13;96167.81;;;7.31;93.16
69171;BME280;56279;47.902;12.308;2022-09-21T05:07:15;96164.09;;;7.27;92.86
69171;BME280;56279;47.902;12.308;2022-09-21T05:09:16;96168.78;;;7.25;93.08
69171;BME280;56279;47.902;12.308;2022-09-21T05:11:36;96173.47;;;7.23;92.72
69171;BME280;56279;47.902;12.308;2022-09-21T05:13:39;96178.94;;;7.21;93.09
69171;BME280;56279;47.902;12.308;2022-09-21T05:15:40;96175.75;;;7.19;93.32
69171;BME280;56279;47.902;12.308;2022-09-21T05:17:41;96176.22;;;7.16;93.01
69171;BME280;56279;47.902;12.308;2022-09-21T05:19:43;96177.25;;;7.15;93.21
69171;BME280;56279;47.902;12.308;2022-09-21T05:21:44;96176.69;;;7.13;93.02
69171;BME280;56279;47.902;12.308;2022-09-21T05:23:46;96176.94;;;7.12;93.46
69171;BME280;56279;47.902;12.308;2022-09-21T05:25:47;96178.97;;;7.10;93.55
69171;BME280;56279;47.902;12.308;2022-09-21T05:27:49;96181.84;;;7.08;93.14
69171;BME280;56279;47.902;12.308;2022-09-21T05:29:51;96180.03;;;7.09;93.45
69171;BME280;56279;47.902;12.308;2022-09-21T05:32:08;96184.72;;;7.07;93.06
69171;BME280;56279;47.902;12.308;2022-09-21T05:34:20;96176.59;;;7.08;93.18
69171;BME280;56279;47.902;12.308;2022-09-21T05:38:47;96186.06;;;7.09;93.45
69171;BME280;56279;47.902;12.308;2022-09-21T05:40:49;96185.28;;;7.09;93.67
69171;BME280;56279;47.902;12.308;2022-09-21T05:42:50;96179.78;;;7.10;93.18
69171;BME280;56279;47.902;12.308;2022-09-21T05:44:52;96193.69;;;7.11;93.25
69171;BME280;56279;47.902;12.308;2022-09-21T05:47:03;96189.25;;;7.11;93.23
69171;BME280;56279;47.902;12.308;2022-09-21T05:49:18;96194.03;;;7.14;93.65
69171;BME280;56279;47.902;12.308;2022-09-21T05:51:46;96191.19;;;7.16;93.17
69171;BME280;56279;47.902;12.308;2022-09-21T05:57:18;96194.94;;;7.20;93.09
69171;BME280;56279;47.902;12.308;2022-09-21T06:02:17;96191.03;;;7.22;93.29
69171;BME280;56279;47.902;12.308;2022-09-21T06:04:20;96195.03;;;7.25;92.97
69171;BME280;56279;47.902;12.308;2022-09-21T06:06:22;96190.88;;;7.29;93.33
69171;BME280;56279;47.902;12.308;2022-09-21T06:08:24;96194.06;;;7.31;93.09
69171;BME280;56279;47.902;12.308;2022-09-21T06:10:28;96195.22;;;7.35;93.01
69171;BME280;56279;47.902;12.308;2022-09-21T06:12:32;96196.66;;;7.42;92.69
69171;BME280;56279;47.902;12.308;2022-09-21T06:14:33;96200.97;;;7.48;92.72
69171;BME280;56279;47.902;12.308;2022-09-21T06:16:39;96203.59;;;7.48;92.31
69171;BME280;56279;47.902;12.308;2022-09-21T06:18:41;96205.19;;;7.49;92.67
69171;BME280;56279;47.902;12.308;2022-09-21T06:20:42;96206.00;;;7.50;93.13
69171;BME280;56279;47.902;12.308;2022-09-21T06:22:43;96204.72;;;7.52;93.10
69171;BME280;56279;47.902;12.308;2022-09-21T06:24:45;96210.31;;;7.56;93.33
69171;BME280;56279;47.902;12.308;2022-09-21T06:26:46;96204.56;;;7.59;93.31
69171;BME280;56279;47.902;12.308;2022-09-21T06:28:47;96207.03;;;7.65;92.99
69171;BME280;56279;47.902;12.308;2022-09-21T06:30:53;96209.75;;;7.71;92.47
69171;BME280;56279;47.902;12.308;2022-09-21T06:32:58;96201.97;;;7.76;92.44
69171;BME280;56279;47.902;12.308;2022-09-21T06:35:00;96210.66;;;7.76;92.95
69171;BME280;56279;47.902;12.308;2022-09-21T06:37:01;96219.09;;;7.78;92.63
69171;BME280;56279;47.902;12.308;2022-09-21T06:39:08;96207.31;;;7.81;92.61
69171;BME280;56279;47.902;12.308;2022-09-21T06:41:14;96214.75;;;7.84;92.68
69171;BME280;56279;47.902;12.308;2022-09-21T06:43:19;96209.00;;;7.87;93.17
69171;BME280;56279;47.902;12.308;2022-09-21T06:45:20;96215.22;;;7.97;92.35
69171;BME280;56279;47.902;12.308;2022-09-21T06:47:21;96212.44;;;8.04;91.94
69171;BME280;56279;47.902;12.308;2022-09-21T06:49:23;96213.53;;;8.08;92.41
69171;BME280;56279;47.902;12.308;2022-09-21T06:51:24;96211.16;;;8.06;92.22
69171;BME280;56279;47.902;12.308;2022-09-21T06:53:27;96213.78;;;8.06;92.53
69171;BME280;56279;47.902;12.308;2022-09-21T06:55:31;96207.50;;;8.07;92.83
69171;BME280;56279;47.902;12.308;2022-09-21T06:57:35;96210.69;;;8.09;92.51
69171;BME280;56279;47.902;12.308;2022-09-21T06:59:41;96209.66;;;8.10;92.16
69171;BME280;56279;47.902;12.308;2022-09-21T07:01:46;96218.09;;;8.12;92.09
69171;BME280;56279;47.902;12.308;2022-09-21T07:03:49;96213.63;;;8.13;92.53
69171;BME280;56279;47.902;12.308;2022-09-21T07:05:51;96214.19;;;8.15;92.55
69171;BME280;56279;47.902;12.308;2022-09-21T07:07:56;96224.47;;;8.16;91.99
69171;BME280;56279;47.902;12.308;2022-09-21T07:10:00;96222.16;;;8.20;91.79
69171;BME280;56279;47.902;12.308;2022-09-21T07:12:02;96223.50;;;8.22;91.74
69171;BME280;56279;47.902;12.308;2022-09-21T07:14:06;96233.56;;;8.25;92.02
69171;BME280;56279;47.902;12.308;2022-09-21T07:16:08;96223.38;;;8.29;91.83
69171;BME280;56279;47.902;12.308;2022-09-21T07:18:11;96230.00;;;8.31;91.86
69171;BME280;56279;47.902;12.308;2022-09-21T07:20:13;96225.28;;;8.33;91.62
69171;BME280;56279;47.902;12.308;2022-09-21T07:22:14;96230.06;;;8.37;91.97
69171;BME280;56279;47.902;12.308;2022-09-21T07:24:15;96229.59;;;8.40;91.54
69171;BME280;56279;47.902;12.308;2022-09-21T07:26:22;96230.97;;;8.42;91.69
69171;BME280;56279;47.902;12.308;2022-09-21T07:28:23;96232.88;;;8.47;91.46
69171;BME280;56279;47.902;12.308;2022-09-21T07:30:25;96235.00;;;8.50;91.25
69171;BME280;56279;47.902;12.308;2022-09-21T07:32:30;96233.50;;;8.54;90.95
69171;BME280;56279;47.902;12.308;2022-09-21T07:34:35;96237.22;;;8.58;90.92
69171;BME280;56279;47.902;12.308;2022-09-21T07:36:37;96235.94;;;8.60;90.68
69171;BME280;56279;47.902;12.308;2022-09-21T07:38:42;96234.91;;;8.61;90.50
69171;BME280;56279;47.902;12.308;2022-09-21T07:40:44;96225.72;;;8.64;90.61
69171;BME280;56279;47.902;12.308;2022-09-21T07:42:48;96228.69;;;8.67;90.05
69171;BME280;56279;47.902;12.308;2022-09-21T07:44:50;96230.03;;;8.70;89.97
69171;BME280;56279;47.902;12.308;2022-09-21T07:46:53;96239.03;;;8.74;90.03
69171;BME280;56279;47.902;12.308;2022-09-21T07:48:55;96236.72;;;8.77;89.84
69171;BME280;56279;47.902;12.308;2022-09-21T07:51:04;96230.66;;;8.77;89.65
69171;BME280;56279;47.902;12.308;2022-09-21T07:53:09;96235.19;;;8.81;89.14
69171;BME280;56279;47.902;12.308;2022-09-21T07:55:10;96235.50;;;8.85;89.14
69171;BME280;56279;47.902;12.308;2022-09-21T07:57:11;96234.00;;;8.89;88.59
69171;BME280;56279;47.902;12.308;2022-09-21T07:59:31;96243.28;;;8.96;88.56
69171;BME280;56279;47.902;12.308;2022-09-21T08:01:38;96246.53;;;9.03;88.63
69171;BME280;56279;47.902;12.308;2022-09-21T08:03:39;96238.22;;;9.12;88.51
69171;BME280;56279;47.902;12.308;2022-09-21T08:05:43;96245.69;;;9.20;88.00
69171;BME280;56279;47.902;12.308;2022-09-21T08:07:44;96248.19;;;9.31;87.54
69171;BME280;56279;47.902;12.308;2022-09-21T08:09:46;96247.56;;;9.46;86.97
69171;BME280;56279;47.902;12.308;2022-09-21T08:11:49;96249.84;;;9.59;87.15
69171;BME280;56279;47.902;12.308;2022-09-21T08:13:59;96247.06;;;9.70;86.28
69171;BME280;56279;47.902;12.308;2022-09-21T08:16:02;96246.13;;;9.82;85.95
69171;BME280;56279;47.902;12.308;2022-09-21T08:18:03;96245.44;;;9.91;85.84
69171;BME280;56279;47.902;12.308;2022-09-21T08:20:07;96244.41;;;9.97;85.42
69171;BME280;56279;47.902;12.308;2022-09-21T08:22:09;96244.78;;;10.06;84.92
69171;BME280;56279;47.902;12.308;2022-09-21T08:24:12;96248.06;;;10.18;84.49
69171;BME280;56279;47.902;12.308;2022-09-21T08:26:15;96249.22;;;10.32;84.55
69171;BME280;56279;47.902;12.308;2022-09-21T08:28:19;96242.25;;;10.48;83.54
69171;BME280;56279;47.902;12.308;2022-09-21T08:30:20;96245.25;;;10.61;83.58
69171;BME280;56279;47.902;12.308;2022-09-21T08:32:22;96241.09;;;10.75;83.49
69171;BME280;56279;47.902;12.308;2022-09-21T08:34:23;96240.13;;;10.86;82.86
69171;BME280;56279;47.902;12.308;2022-09-21T08:36:24;96242.28;;;10.99;82.54
69171;BME280;56279;47.902;12.308;2022-09-21T08:38:30;96242.09;;;11.11;82.12
69171;BME280;56279;47.902;12.308;2022-09-21T08:40:32;96245.78;;;11.10;81.23
69171;BME280;56279;47.902;12.308;2022-09-21T08:42:38;96242.84;;;11.06;80.50
69171;BME280;56279;47.902;12.308;2022-09-21T08:44:56;96239.44;;;11.06;80.53
69171;BME280;56279;47.902;12.308;2022-09-21T08:47:17;96238.41;;;11.12;80.46
69171;BME280;56279;47.902;12.308;2022-09-21T08:49:25;96235.50;;;11.13;79.65
69171;BME280;56279;47.902;12.308;2022-09-21T08:51:31;96238.09;;;11.08;79.31
69171;BME280;56279;47.902;12.308;2022-09-21T08:53:41;96238.34;;;11.02;79.41
69171;BME280;56279;47.902;12.308;2022-09-21T08:55:44;96240.19;;;10.96;79.74
69171;BME280;56279;47.902;12.308;2022-09-21T08:57:48;96246.50;;;10.95;79.88
69171;BME280;56279;47.902;12.308;2022-09-21T08:59:50;96245.19;;;10.98;80.03
69171;BME280;56279;47.902;12.308;2022-09-21T09:02:00;96244.41;;;11.02;79.87
69171;BME280;56279;47.902;12.308;2022-09-21T09:04:53;96244.19;;;11.09;79.72
69171;BME280;56279;47.902;12.308;2022-09-21T09:11:24;96247.22;;;11.38;78.24
69171;BME280;56279;47.902;12.308;2022-09-21T09:13:54;96240.69;;;11.50;77.80
69171;BME280;56279;47.902;12.308;2022-09-21T09:18:47;96241.56;;;11.81;76.78
69171;BME280;56279;47.902;12.308;2022-09-21T09:20:57;96235.50;;;11.91;76.32
69171;BME280;56279;47.902;12.308;2022-09-21T09:23:09;96231.53;;;11.93;76.06
69171;BME280;56279;47.902;12.308;2022-09-21T09:25:17;96236.06;;;12.03;75.88
69171;BME280;56279;47.902;12.308;2022-09-21T09:27:25;96233.16;;;12.19;75.60
69171;BME280;56279;47.902;12.308;2022-09-21T09:29:32;96233.72;;;12.41;74.99
69171;BME280;56279;47.902;12.308;2022-09-21T09:31:39;96230.22;;;12.56;74.04
69171;BME280;56279;47.902;12.308;2022-09-21T09:33:59;96243.75;;;12.65;74.25
69171;BME280;56279;47.902;12.308;2022-09-21T09:36:04;96238.41;;;12.75;73.76
69171;BME280;56279;47.902;12.308;2022-09-21T09:38:39;96239.72;;;12.87;74.32
69171;BME280;56279;47.902;12.308;2022-09-21T09:41:05;96231.22;;;12.95;74.08
69171;BME280;56279;47.902;12.308;2022-09-21T09:43:36;96225.38;;;13.03;73.88
69171;BME280;56279;47.902;12.308;2022-09-21T09:45:59;96228.84;;;13.09;73.57
69171;BME280;56279;47.902;12.308;2022-09-21T09:49:15;96228.84;;;13.09;73.47
69171;BME280;56279;47.902;12.308;2022-09-21T09:50:51;96229.38;;;13.11;72.79
69171;BME280;56279;47.902;12.308;2022-09-21T09:52:58;96227.78;;;13.10;72.89
69171;BME280;56279;47.902;12.308;2022-09-21T09:55:35;96224.88;;;13.11;73.34
69171;BME280;56279;47.902;12.308;2022-09-21T09:57:38;96216.09;;;13.16;72.53
69171;BME280;56279;47.902;12.308;2022-09-21T09:59:51;96219.50;;;13.22;72.03
69171;BME280;56279;47.902;12.308;2022-09-21T10:02:22;96217.38;;;13.24;71.27
69171;BME280;56279;47.902;12.308;2022-09-21T10:04:23;96211.84;;;13.25;71.70
69171;BME280;56279;47.902;12.308;2022-09-21T10:06:33;96213.66;;;13.35;71.04
69171;BME280;56279;47.902;12.308;2022-09-21T10:08:41;96208.03;;;13.41;70.29
69171;BME280;56279;47.902;12.308;2022-09-21T10:10:43;96207.47;;;13.44;70.48
69171;BME280;56279;47.902;12.308;2022-09-21T10:12:45;96205.91;;;13.43;69.73
69171;BME280;56279;47.902;12.308;2022-09-21T10:14:49;96206.22;;;13.37;69.57
69171;BME280;56279;47.902;12.308;2022-09-21T10:16:52;96207.25;;;13.36;69.07
69171;BME280;56279;47.902;12.308;2022-09-21T10:18:57;96200.91;;;13.37;69.22
69171;BME280;56279;47.902;12.308;2022-09-21T10:21:22;96199.00;;;13.47;69.06
69171;BME280;56279;47.902;12.308;2022-09-21T10:23:25;96200.00;;;13.56;68.24
69171;BME280;56279;47.902;12.308;2022-09-21T10:25:29;96202.63;;;13.61;67.96
69171;BME280;56279;47.902;12.308;2022-09-21T10:27:36;96194.44;;;13.58;68.42
69171;BME280;56279;47.902;12.308;2022-09-21T10:29:43;96189.16;;;13.53;67.75
69171;BME280;56279;47.902;12.308;2022-09-21T10:32:04;96189.97;;;13.53;68.38
69171;BME280;56279;47.902;12.308;2022-09-21T10:34:14;96186.97;;;13.65;68.27
69171;BME280;56279;47.902;12.308;2022-09-21T10:36:36;96182.63;;;13.79;68.08
69171;BME280;56279;47.902;12.308;2022-09-21T10:38:37;96195.31;;;13.87;67.69
69171;BME280;56279;47.902;12.308;2022-09-21T10:40:39;96188.13;;;13.93;67.46
69171;BME280;56279;47.902;12.308;2022-09-21T10:42:43;96184.63;;;13.97;67.09
69171;BME280;56279;47.902;12.308;2022-09-21T10:44:47;96192.78;;;14.06;66.79
69171;BME280;56279;47.902;12.308;2022-09-21T10:46:51;96180.06;;;14.03;65.92
69171;BME280;56279;47.902;12.308;2022-09-21T10:48:53;96182.78;;;13.98;66.47
69171;BME280;56279;47.902;12.308;2022-09-21T10:50:55;96184.38;;;13.94;66.72
69171;BME280;56279;47.902;12.308;2022-09-21T10:55:18;96184.59;;;14.02;67.27
69171;BME280;56279;47.902;12.308;2022-09-21T10:57:22;96189.66;;;13.99;66.35
69171;BME280;56279;47.902;12.308;2022-09-21T10:59:32;96179.38;;;13.87;66.87
69171;BME280;56279;47.902;12.308;2022-09-21T11:01:42;96179.09;;;13.88;67.13
69171;BME280;56279;47.902;12.308;2022-09-21T11:04:07;96179.06;;;13.94;67.29
69171;BME280;56279;47.902;12.308;2022-09-21T11:06:28;96187.38;;;13.82;66.67
69171;BME280;56279;47.902;12.308;2022-09-21T11:08:43;96185.84;;;13.76;67.02
69171;BME280;56279;47.902;12.308;2022-09-21T11:13:24;96187.19;;;13.68;66.44
69171;BME280;56279;47.902;12.308;2022-09-21T11:26:43;96172.31;;;13.72;66.64
69171;BME280;56279;47.902;12.308;2022-09-21T11:31:34;96166.41;;;13.85;66.65
69171;BME280;56279;47.902;12.308;2022-09-21T11:38:50;96157.06;;;13.93;64.85
69171;BME280;56279;47.902;12.308;2022-09-21T11:41:08;96147.44;;;14.02;64.76
69171;BME280;56279;47.902;12.308;2022-09-21T11:47:48;96144.06;;;13.92;64.48
69171;BME280;56279;47.902;12.308;2022-09-21T11:50:12;96149.25;;;13.73;64.72
69171;BME280;56279;47.902;12.308;2022-09-21T11:57:11;96136.72;;;13.40;65.96
69171;BME280;56279;47.902;12.308;2022-09-21T11:59:47;96139.97;;;13.27;66.08
69171;BME280;56279;47.902;12.308;2022-09-21T12:05:00;96132.22;;;13.35;66.48
69171;BME280;56279;47.902;12.308;2022-09-21T12:11:48;96128.63;;;13.65;62.83
69171;BME280;56279;47.902;12.308;2022-09-21T12:18:35;96129.28;;;13.80;62.38
69171;BME280;56279;47.902;12.308;2022-09-21T12:20:46;96128.13;;;13.92;62.22
69171;BME280;56279;47.902;12.308;2022-09-21T12:22:53;96120.09;;;14.02;62.38
69171;BME280;56279;47.902;12.308;2022-09-21T12:25:11;96123.19;;;14.14;62.08
69171;BME280;56279;47.902;12.308;2022-09-21T12:27:37;96121.00;;;14.21;61.41
69171;BME280;56279;47.902;12.308;2022-09-21T12:29:43;96114.09;;;14.20;60.83
69171;BME280;56279;47.902;12.308;2022-09-21T12:34:21;96117.88;;;14.14;59.18
69171;BME280;56279;47.902;12.308;2022-09-21T12:36:31;96104.56;;;14.19;58.82
69171;BME280;56279;47.902;12.308;2022-09-21T12:38:38;96106.88;;;14.25;59.92
69171;BME280;56279;47.902;12.308;2022-09-21T12:40:46;96107.88;;;14.34;59.81